Time;durP1;ratioP1;P1;durP2;ratioP2;P2;SDS_P1;SDS_P2;PMS_P1;PMS_P2;Temp;Humidity;BMP_temperature;BMP_pressure;BME280_temperature;BME280_humidity;BME280_pressure;Samples;Min_cycle;Max_cycle;Signal;HPM_P1;HPM_P2
2021/05/09 00:02:23;;;;;;;3.33;1.00;;;;;;;;;;5077673;28;20290;-72
2021/05/09 00:04:51;;;;;;;1.57;1.00;;;;;;;;;;5077115;28;20218;-71
2021/05/09 00:07:18;;;;;;;1.20;1.10;;;;;;;;;;5077200;28;20237;-71
2021/05/09 00:09:45;;;;;;;2.33;1.07;;;;;;;;;;5089841;28;20276;-70
2021/05/09 00:12:12;;;;;;;1.10;1.00;;;;;;;;;;5098049;28;20630;-71
2021/05/09 00:14:40;;;;;;;1.80;1.00;;;;;;;;;;5097549;28;20232;-71
2021/05/09 00:17:07;;;;;;;2.07;1.10;;;;;;;;;;5097687;28;20288;-71
2021/05/09 00:19:34;;;;;;;2.70;0.97;;;;;;;;;;5097713;28;20209;-71
2021/05/09 00:22:01;;;;;;;3.43;1.13;;;;;;;;;;5097155;28;20257;-71
2021/05/09 00:24:28;;;;;;;1.93;1.13;;;;;;;;;;5097316;28;20308;-71
2021/05/09 00:26:55;;;;;;;1.00;0.90;;;;;;;;;;5097658;28;20212;-71
2021/05/09 00:29:22;;;;;;;1.50;0.80;;;;;;;;;;5097588;28;20307;-71
2021/05/09 00:31:50;;;;;;;1.17;1.07;;;;;;;;;;5097827;28;20202;-71
2021/05/09 00:34:17;;;;;;;2.87;1.00;;;;;;;;;;5097139;28;20736;-71
2021/05/09 00:36:44;;;;;;;1.03;0.80;;;;;;;;;;5096841;28;20206;-70
2021/05/09 00:39:11;;;;;;;1.13;0.93;;;;;;;;;;5097223;28;20296;-71
2021/05/09 00:41:38;;;;;;;2.07;0.90;;;;;;;;;;5098787;28;20304;-71
2021/05/09 00:44:05;;;;;;;0.93;0.90;;;;;;;;;;5101249;28;20213;-71
2021/05/09 00:46:32;;;;;;;1.00;0.90;;;;;;;;;;5101647;28;20201;-71
2021/05/09 00:49:01;;;;;;;1.73;1.00;;;;;;;;;;5100977;28;20638;-71
2021/05/09 00:51:28;;;;;;;2.37;0.90;;;;;;;;;;5100877;28;20212;-71
2021/05/09 00:53:55;;;;;;;0.73;0.73;;;;;;;;;;5100959;28;20233;-71
2021/05/09 00:56:23;;;;;;;1.40;0.90;;;;;;;;;;5100354;28;20308;-71
2021/05/09 00:58:51;;;;;;;0.77;0.77;;;;;;;;;;5100767;28;20252;-71
2021/05/09 01:01:19;;;;;;;1.13;1.00;;;;;;;;;;5100509;28;20308;-71
2021/05/09 01:03:47;;;;;;;1.47;0.93;;;;;;;;;;5100812;28;20277;-71
2021/05/09 01:06:15;;;;;;;1.10;0.93;;;;;;;;;;5100181;28;20661;-71
2021/05/09 01:08:42;;;;;;;0.80;0.80;;;;;;;;;;5100465;28;20276;-71
2021/05/09 01:11:10;;;;;;;2.20;1.00;;;;;;;;;;5100553;28;20637;-70
2021/05/09 01:13:37;;;;;;;1.67;0.93;;;;;;;;;;5100563;28;20293;-71
2021/05/09 01:16:04;;;;;;;1.87;0.90;;;;;;;;;;5100456;28;20308;-71
2021/05/09 01:18:31;;;;;;;1.73;0.80;;;;;;;;;;5100706;28;20213;-71
2021/05/09 01:20:59;;;;;;;1.60;0.83;;;;;;;;;;5100211;28;20225;-71
2021/05/09 01:23:26;;;;;;;1.77;0.77;;;;;;;;;;5100576;28;20212;-71
2021/05/09 01:25:53;;;;;;;3.37;1.27;;;;;;;;;;5099774;28;20309;-70
2021/05/09 01:28:20;;;;;;;1.53;0.77;;;;;;;;;;5100521;28;20205;-71
2021/05/09 01:30:47;;;;;;;1.97;0.90;;;;;;;;;;5100175;28;20680;-71
2021/05/09 01:33:14;;;;;;;2.93;0.80;;;;;;;;;;5100364;28;20296;-71
2021/05/09 01:35:41;;;;;;;1.70;1.10;;;;;;;;;;5099695;28;20229;-71
2021/05/09 01:38:09;;;;;;;2.10;0.80;;;;;;;;;;5100287;28;20237;-70
2021/05/09 01:40:36;;;;;;;0.83;0.80;;;;;;;;;;5099690;28;20208;-71
2021/05/09 01:43:03;;;;;;;2.10;0.83;;;;;;;;;;5099971;28;20293;-71
2021/05/09 01:45:30;;;;;;;1.57;0.80;;;;;;;;;;5099915;28;20234;-70
2021/05/09 01:47:57;;;;;;;1.50;0.90;;;;;;;;;;5099829;28;20205;-71
2021/05/09 01:50:24;;;;;;;0.93;0.73;;;;;;;;;;5099662;28;20236;-71
2021/05/09 01:52:51;;;;;;;1.73;0.83;;;;;;;;;;5099295;28;20209;-71
2021/05/09 01:55:21;;;;;;;0.77;0.77;;;;;;;;;;5099505;28;20253;-71
2021/05/09 01:57:48;;;;;;;0.70;0.70;;;;;;;;;;5099628;28;20208;-71
2021/05/09 02:00:16;;;;;;;0.70;0.70;;;;;;;;;;5099172;28;20565;-71
2021/05/09 02:02:43;;;;;;;1.67;0.80;;;;;;;;;;5099836;28;20268;-71
2021/05/09 02:05:11;;;;;;;1.40;0.97;;;;;;;;;;5098622;28;20231;-71
2021/05/09 02:07:38;;;;;;;1.73;0.80;;;;;;;;;;5099656;28;20206;-71
2021/05/09 02:10:05;;;;;;;1.50;1.00;;;;;;;;;;5099329;28;20268;-71
2021/05/09 02:12:33;;;;;;;1.17;0.80;;;;;;;;;;5099538;28;20708;-70
2021/05/09 02:15:00;;;;;;;2.80;1.00;;;;;;;;;;5099383;28;20221;-70
2021/05/09 02:17:27;;;;;;;2.00;1.00;;;;;;;;;;5099496;28;21048;-71
2021/05/09 02:19:54;;;;;;;0.77;0.70;;;;;;;;;;5099061;28;20784;-71
2021/05/09 02:22:22;;;;;;;1.70;0.80;;;;;;;;;;5099248;28;20249;-71
2021/05/09 02:24:49;;;;;;;1.00;0.90;;;;;;;;;;5098846;28;20357;-71
2021/05/09 02:27:16;;;;;;;1.07;1.00;;;;;;;;;;5098859;28;20205;-71
2021/05/09 02:29:44;;;;;;;3.13;0.90;;;;;;;;;;5099083;28;20205;-71
2021/05/09 02:32:11;;;;;;;1.77;0.80;;;;;;;;;;5099133;28;20289;-71
2021/05/09 02:34:38;;;;;;;0.70;0.70;;;;;;;;;;5099031;28;20221;-71
2021/05/09 02:37:05;;;;;;;2.07;0.90;;;;;;;;;;5098504;28;20205;-71
2021/05/09 02:39:32;;;;;;;4.30;0.77;;;;;;;;;;5098701;28;20641;-71
2021/05/09 02:41:59;;;;;;;1.60;0.90;;;;;;;;;;5098492;28;20257;-71
2021/05/09 02:44:26;;;;;;;1.80;1.20;;;;;;;;;;5098912;28;20287;-71
2021/05/09 02:46:54;;;;;;;1.03;0.90;;;;;;;;;;5098595;28;20266;-71
2021/05/09 02:49:21;;;;;;;1.47;0.90;;;;;;;;;;5098718;28;20231;-71
2021/05/09 02:51:48;;;;;;;2.13;1.47;;;;;;;;;;5098477;28;20220;-71
2021/05/09 02:54:15;;;;;;;0.90;0.90;;;;;;;;;;5098397;28;20332;-71
2021/05/09 02:56:42;;;;;;;3.03;0.97;;;;;;;;;;5098403;28;20290;-71
2021/05/09 02:59:09;;;;;;;2.50;1.00;;;;;;;;;;5098358;28;20309;-71
2021/05/09 03:01:36;;;;;;;1.40;1.30;;;;;;;;;;5098670;28;20233;-71
2021/05/09 03:04:05;;;;;;;1.17;0.80;;;;;;;;;;5095302;28;20201;-71
2021/05/09 03:06:32;;;;;;;2.47;0.73;;;;;;;;;;5098043;28;20270;-71
2021/05/09 03:08:59;;;;;;;2.90;1.00;;;;;;;;;;5098463;28;20286;-71
2021/05/09 03:11:28;;;;;;;2.33;1.00;;;;;;;;;;5098402;28;20201;-71
2021/05/09 03:13:56;;;;;;;1.13;1.00;;;;;;;;;;5098212;28;20205;-71
2021/05/09 03:16:23;;;;;;;1.60;0.90;;;;;;;;;;5098289;28;20228;-71
2021/05/09 03:18:50;;;;;;;0.83;0.83;;;;;;;;;;5097904;28;20707;-71
2021/05/09 03:21:20;;;;;;;3.60;1.00;;;;;;;;;;5097649;28;20244;-71
2021/05/09 03:23:48;;;;;;;0.80;0.80;;;;;;;;;;5098341;28;20211;-70
2021/05/09 03:26:15;;;;;;;2.10;0.77;;;;;;;;;;5098005;28;20225;-71
2021/05/09 03:28:42;;;;;;;1.67;0.90;;;;;;;;;;5097878;28;20732;-70
2021/05/09 03:31:09;;;;;;;1.30;0.90;;;;;;;;;;5098110;28;20266;-71
2021/05/09 03:33:35;;;;;;;1.83;1.10;;;;;;;;;;5098201;28;20208;-71
2021/05/09 03:36:03;;;;;;;0.87;0.87;;;;;;;;;;5097352;28;20244;-71
2021/05/09 03:38:31;;;;;;;1.70;0.83;;;;;;;;;;5097884;28;20293;-71
2021/05/09 03:40:58;;;;;;;0.97;0.80;;;;;;;;;;5097919;28;20256;-71
2021/05/09 03:43:25;;;;;;;7.87;0.90;;;;;;;;;;5097953;28;20236;-71
2021/05/09 03:45:52;;;;;;;0.97;0.90;;;;;;;;;;5097732;28;20229;-71
2021/05/09 03:48:19;;;;;;;1.07;0.97;;;;;;;;;;5097893;28;21058;-71
2021/05/09 03:50:45;;;;;;;2.10;0.80;;;;;;;;;;5097490;28;20610;-71
2021/05/09 03:53:14;;;;;;;1.13;0.90;;;;;;;;;;5097607;28;20641;-71
2021/05/09 03:55:42;;;;;;;2.30;1.10;;;;;;;;;;5097958;28;20268;-71
2021/05/09 03:58:09;;;;;;;0.90;0.90;;;;;;;;;;5097619;28;20241;-71
2021/05/09 04:00:36;;;;;;;0.93;0.80;;;;;;;;;;5097794;28;20645;-71
2021/05/09 04:03:03;;;;;;;0.90;0.87;;;;;;;;;;5097452;28;20222;-71
2021/05/09 04:05:30;;;;;;;0.80;0.80;;;;;;;;;;5097420;28;20308;-71
2021/05/09 04:07:57;;;;;;;2.13;0.80;;;;;;;;;;5097577;28;20205;-71
2021/05/09 04:10:24;;;;;;;2.50;0.90;;;;;;;;;;5097351;28;20274;-71
2021/05/09 04:12:52;;;;;;;1.00;0.90;;;;;;;;;;5097529;28;20241;-71
2021/05/09 04:15:19;;;;;;;2.53;1.00;;;;;;;;;;5097660;28;20228;-70
2021/05/09 04:17:46;;;;;;;1.80;0.70;;;;;;;;;;5100995;28;20293;-71
2021/05/09 04:20:13;;;;;;;1.30;1.00;;;;;;;;;;5100140;28;20661;-71
2021/05/09 04:22:40;;;;;;;1.37;0.80;;;;;;;;;;5101366;28;20237;-71
2021/05/09 04:25:08;;;;;;;1.93;1.03;;;;;;;;;;5101322;28;20306;-71
2021/05/09 04:27:34;;;;;;;1.00;0.90;;;;;;;;;;5101203;28;20653;-71
2021/05/09 04:30:03;;;;;;;0.93;0.93;;;;;;;;;;5101223;28;20729;-71
2021/05/09 04:32:30;;;;;;;2.90;0.97;;;;;;;;;;5101421;28;20264;-71
2021/05/09 04:34:58;;;;;;;1.00;0.60;;;;;;;;;;5100756;28;20225;-70
2021/05/09 04:37:25;;;;;;;0.90;0.87;;;;;;;;;;5101263;28;20736;-71
2021/05/09 04:39:52;;;;;;;1.10;0.90;;;;;;;;;;5101300;28;20194;-71
2021/05/09 04:42:19;;;;;;;0.87;0.87;;;;;;;;;;5101073;28;20308;-71
2021/05/09 04:44:46;;;;;;;0.93;0.93;;;;;;;;;;5101257;28;20233;-71
2021/05/09 04:47:14;;;;;;;1.97;0.83;;;;;;;;;;5101282;28;20210;-71
2021/05/09 04:49:41;;;;;;;1.03;0.60;;;;;;;;;;5100336;28;20197;-71
2021/05/09 04:52:08;;;;;;;0.70;0.70;;;;;;;;;;5100759;28;20284;-71
2021/05/09 04:54:35;;;;;;;1.20;0.90;;;;;;;;;;5100702;28;20674;-71
2021/05/09 04:57:02;;;;;;;0.80;0.80;;;;;;;;;;5101160;28;20317;-72
2021/05/09 04:59:29;;;;;;;0.97;0.90;;;;;;;;;;5101659;28;20233;-71
2021/05/09 05:01:56;;;;;;;1.90;0.80;;;;;;;;;;5100946;28;20308;-71
2021/05/09 05:04:24;;;;;;;0.77;0.77;;;;;;;;;;5092636;28;20236;-71
2021/05/09 05:06:51;;;;;;;1.07;0.90;;;;;;;;;;5100335;28;20591;-71
2021/05/09 05:09:18;;;;;;;0.90;0.87;;;;;;;;;;5100645;28;20298;-72
2021/05/09 05:11:45;;;;;;;0.63;0.63;;;;;;;;;;5100685;28;20261;-70
2021/05/09 05:14:12;;;;;;;1.40;0.90;;;;;;;;;;5100325;28;20210;-71
2021/05/09 05:16:39;;;;;;;1.47;0.70;;;;;;;;;;5100380;28;20727;-71
2021/05/09 05:19:06;;;;;;;1.47;0.73;;;;;;;;;;5099951;28;20310;-71
2021/05/09 05:21:34;;;;;;;0.80;0.80;;;;;;;;;;5099968;28;20590;-71
2021/05/09 05:24:01;;;;;;;3.00;0.90;;;;;;;;;;5100404;28;20244;-71
2021/05/09 05:26:28;;;;;;;1.00;0.73;;;;;;;;;;5100684;28;20288;-71
2021/05/09 05:28:56;;;;;;;1.00;0.90;;;;;;;;;;5099300;28;20284;-71
2021/05/09 05:31:23;;;;;;;6.43;1.10;;;;;;;;;;5100450;28;20215;-71
2021/05/09 05:33:50;;;;;;;0.73;0.70;;;;;;;;;;5100011;28;20288;-71
2021/05/09 05:36:17;;;;;;;0.87;0.70;;;;;;;;;;5099954;28;20253;-71
2021/05/09 05:38:46;;;;;;;0.80;0.80;;;;;;;;;;5100231;28;20244;-71
2021/05/09 05:41:13;;;;;;;0.80;0.80;;;;;;;;;;5095232;28;20561;-72
2021/05/09 05:43:40;;;;;;;1.50;0.77;;;;;;;;;;5091327;28;20318;-71
2021/05/09 05:46:07;;;;;;;1.33;0.80;;;;;;;;;;5104389;28;20217;-73
2021/05/09 05:48:34;;;;;;;2.10;0.80;;;;;;;;;;5105279;28;20284;-73
2021/05/09 05:51:01;;;;;;;1.13;0.90;;;;;;;;;;5105800;28;20243;-73
2021/05/09 05:53:29;;;;;;;0.90;0.80;;;;;;;;;;5105561;28;20280;-73
2021/05/09 05:55:57;;;;;;;3.03;0.83;;;;;;;;;;5089136;28;20253;-71
2021/05/09 05:58:24;;;;;;;0.73;0.73;;;;;;;;;;5086369;28;20202;-71
2021/05/09 06:00:51;;;;;;;1.40;0.70;;;;;;;;;;5086254;28;20721;-70
2021/05/09 06:03:20;;;;;;;1.93;0.90;;;;;;;;;;5086079;28;20641;-71
2021/05/09 06:05:47;;;;;;;2.23;0.90;;;;;;;;;;5098340;28;20222;-71
2021/05/09 06:08:15;;;;;;;4.00;0.87;;;;;;;;;;5109474;28;20228;-71
2021/05/09 06:10:43;;;;;;;1.63;0.83;;;;;;;;;;5079708;28;20197;-71
2021/05/09 06:13:11;;;;;;;3.30;0.93;;;;;;;;;;5085265;28;20285;-71
2021/05/09 06:15:38;;;;;;;1.53;0.90;;;;;;;;;;5088435;28;20296;-73
2021/05/09 06:18:05;;;;;;;1.43;0.83;;;;;;;;;;5087871;28;20632;-73
2021/05/09 06:20:32;;;;;;;1.67;0.80;;;;;;;;;;5079385;28;20206;-72
2021/05/09 06:23:02;;;;;;;1.57;1.00;;;;;;;;;;5079432;28;20241;-73
2021/05/09 06:25:29;;;;;;;0.83;0.70;;;;;;;;;;5082590;28;20640;-73
2021/05/09 06:27:56;;;;;;;2.43;0.83;;;;;;;;;;5081381;28;20202;-73
2021/05/09 06:30:24;;;;;;;1.83;1.10;;;;;;;;;;5073632;28;20227;-73
2021/05/09 06:32:51;;;;;;;1.87;1.00;;;;;;;;;;5073360;28;20674;-74
2021/05/09 06:35:19;;;;;;;3.57;0.90;;;;;;;;;;5075786;28;20253;-73
2021/05/09 06:37:46;;;;;;;7.10;3.63;;;;;;;;;;5077836;28;20297;-74
2021/05/09 06:40:13;;;;;;;2.27;1.30;;;;;;;;;;5074635;28;20321;-73
2021/05/09 06:42:40;;;;;;;3.10;1.00;;;;;;;;;;5067925;28;20317;-72
2021/05/09 06:45:11;;;;;;;2.23;0.90;;;;;;;;;;5080140;28;20263;-73
2021/05/09 06:47:40;;;;;;;2.87;0.93;;;;;;;;;;5086055;28;20209;-73
2021/05/09 06:50:08;;;;;;;2.40;0.80;;;;;;;;;;5083380;28;20202;-73
2021/05/09 06:52:35;;;;;;;2.93;0.93;;;;;;;;;;5084422;28;20286;-73
2021/05/09 06:55:03;;;;;;;1.60;1.00;;;;;;;;;;5084491;28;20258;-73
2021/05/09 06:57:29;;;;;;;0.80;0.63;;;;;;;;;;5063454;28;20237;-73
2021/05/09 06:59:56;;;;;;;2.30;0.80;;;;;;;;;;5076365;28;20209;-73
2021/05/09 07:02:23;;;;;;;1.03;0.83;;;;;;;;;;5076086;28;20733;-73
2021/05/09 07:04:52;;;;;;;1.90;0.77;;;;;;;;;;5066089;28;20567;-73
2021/05/09 07:07:19;;;;;;;1.13;0.77;;;;;;;;;;5077110;28;20297;-72
2021/05/09 07:09:46;;;;;;;0.70;0.70;;;;;;;;;;5090588;28;20269;-68
2021/05/09 07:12:13;;;;;;;1.33;0.77;;;;;;;;;;5098122;28;20667;-69
2021/05/09 07:14:40;;;;;;;1.00;0.90;;;;;;;;;;5081647;28;20646;-70
2021/05/09 07:17:07;;;;;;;1.30;0.83;;;;;;;;;;5098104;28;20278;-70
2021/05/09 07:19:34;;;;;;;1.87;0.93;;;;;;;;;;5089269;28;20199;-69
2021/05/09 07:22:06;;;;;;;1.20;0.70;;;;;;;;;;5091242;28;20275;-69
2021/05/09 07:24:33;;;;;;;0.70;0.70;;;;;;;;;;5083971;28;20305;-70
2021/05/09 07:27:00;;;;;;;1.63;0.90;;;;;;;;;;5096974;28;20212;-69
2021/05/09 07:29:27;;;;;;;1.03;1.00;;;;;;;;;;5087440;28;20208;-69
2021/05/09 07:31:54;;;;;;;2.00;0.80;;;;;;;;;;5095556;28;20202;-69
2021/05/09 07:34:21;;;;;;;0.83;0.83;;;;;;;;;;5089281;28;20229;-70
2021/05/09 07:36:49;;;;;;;0.97;0.60;;;;;;;;;;5084542;28;20624;-70
2021/05/09 07:39:17;;;;;;;1.37;1.10;;;;;;;;;;5084340;28;20265;-68
2021/05/09 07:41:44;;;;;;;2.17;0.90;;;;;;;;;;5089399;28;20228;-70
2021/05/09 07:44:11;;;;;;;1.57;0.90;;;;;;;;;;5087265;28;20307;-70
2021/05/09 07:46:40;;;;;;;2.40;0.90;;;;;;;;;;5087444;28;20731;-70
2021/05/09 07:49:07;;;;;;;2.00;0.90;;;;;;;;;;5083224;28;20208;-70
2021/05/09 07:51:34;;;;;;;2.07;0.80;;;;;;;;;;5086119;28;20285;-70
2021/05/09 07:54:01;;;;;;;1.97;0.70;;;;;;;;;;5090913;28;20202;-70
2021/05/09 07:56:30;;;;;;;3.70;1.00;;;;;;;;;;5089904;28;20206;-70
2021/05/09 07:58:57;;;;;;;2.90;1.10;;;;;;;;;;5087239;28;20241;-70
2021/05/09 08:01:24;;;;;;;1.13;0.50;;;;;;;;;;5089481;28;20208;-70
2021/05/09 08:03:51;;;;;;;0.67;0.67;;;;;;;;;;5086070;28;20203;-68
2021/05/09 08:06:18;;;;;;;7.87;2.60;;;;;;;;;;5090630;28;20223;-70
2021/05/09 08:08:45;;;;;;;1.43;1.03;;;;;;;;;;5089092;28;20311;-70
2021/05/09 08:11:12;;;;;;;2.90;0.87;;;;;;;;;;5092408;28;20203;-70
2021/05/09 08:13:40;;;;;;;1.63;0.77;;;;;;;;;;5093297;28;20275;-70
2021/05/09 08:16:07;;;;;;;1.77;1.03;;;;;;;;;;5091285;28;20312;-69
2021/05/09 08:18:34;;;;;;;0.80;0.80;;;;;;;;;;5087628;28;20288;-69
2021/05/09 08:21:02;;;;;;;1.13;0.80;;;;;;;;;;5081007;28;21403;-69
2021/05/09 08:23:30;;;;;;;0.90;0.90;;;;;;;;;;5090257;28;20589;-69
2021/05/09 08:26:00;;;;;;;5.77;2.50;;;;;;;;;;5093875;28;20607;-69
2021/05/09 08:28:27;;;;;;;1.23;1.10;;;;;;;;;;5098600;28;20284;-69
2021/05/09 08:30:55;;;;;;;3.10;1.00;;;;;;;;;;5098947;28;20322;-69
2021/05/09 08:33:22;;;;;;;2.83;1.00;;;;;;;;;;5088084;28;20296;-69
2021/05/09 08:35:49;;;;;;;1.07;0.70;;;;;;;;;;5095155;28;20220;-69
2021/05/09 08:38:16;;;;;;;3.77;0.90;;;;;;;;;;5087208;28;20233;-69
2021/05/09 08:40:43;;;;;;;1.10;0.80;;;;;;;;;;5101150;28;20233;-69
2021/05/09 08:43:10;;;;;;;1.20;0.80;;;;;;;;;;5098836;28;20603;-69
2021/05/09 08:45:37;;;;;;;1.77;1.10;;;;;;;;;;5093465;28;20297;-69
2021/05/09 08:48:07;;;;;;;1.10;0.73;;;;;;;;;;5101083;28;20287;-69
2021/05/09 08:50:34;;;;;;;0.70;0.70;;;;;;;;;;5093127;28;20276;-70
2021/05/09 08:53:01;;;;;;;3.00;0.93;;;;;;;;;;5086085;28;20198;-69
2021/05/09 08:55:28;;;;;;;1.80;0.70;;;;;;;;;;5106629;28;20304;-70
2021/05/09 08:57:55;;;;;;;1.03;0.70;;;;;;;;;;5107044;28;20276;-70
2021/05/09 09:00:24;;;;;;;1.73;0.60;;;;;;;;;;5108721;28;20242;-70
2021/05/09 09:02:57;;;;;;;2.20;0.80;;;;;;;;;;5090906;28;20225;-69
2021/05/09 09:05:36;;;;;;;0.90;0.90;;;;;;;;;;5099488;28;20216;-67
2021/05/09 09:08:03;;;;;;;2.03;1.03;;;;;;;;;;5098373;28;20205;-69
2021/05/09 09:10:32;;;;;;;3.07;1.00;;;;;;;;;;5104664;28;20342;-69
2021/05/09 09:13:01;;;;;;;1.73;0.80;;;;;;;;;;5105429;28;20201;-68
2021/05/09 09:15:47;;;;;;;2.90;1.00;;;;;;;;;;5095501;28;20308;-70
2021/05/09 09:18:26;;;;;;;3.33;0.80;;;;;;;;;;5099321;28;20730;-70
2021/05/09 09:20:54;;;;;;;0.80;0.80;;;;;;;;;;5079963;28;20291;-70
2021/05/09 09:23:22;;;;;;;2.17;1.00;;;;;;;;;;5091096;28;20626;-70
2021/05/09 09:25:49;;;;;;;5.43;0.83;;;;;;;;;;5097040;28;20291;-70
2021/05/09 09:28:18;;;;;;;2.53;0.80;;;;;;;;;;5103714;28;20208;-70
2021/05/09 09:30:48;;;;;;;1.57;1.27;;;;;;;;;;5100714;28;20263;-69
2021/05/09 09:33:16;;;;;;;2.87;0.67;;;;;;;;;;5090089;28;20636;-69
2021/05/09 09:35:43;;;;;;;1.93;0.90;;;;;;;;;;5095012;28;20803;-70
2021/05/09 09:38:21;;;;;;;5.23;0.80;;;;;;;;;;5098935;28;20264;-70
2021/05/09 09:41:07;;;;;;;1.27;0.70;;;;;;;;;;5097056;28;20270;-70
2021/05/09 09:43:34;;;;;;;3.10;0.70;;;;;;;;;;5088147;28;20315;-71
2021/05/09 09:46:01;;;;;;;0.73;0.73;;;;;;;;;;5100719;28;20244;-71
2021/05/09 09:48:38;;;;;;;2.27;0.60;;;;;;;;;;5107536;28;20675;-72
2021/05/09 09:51:06;;;;;;;0.60;0.60;;;;;;;;;;5103408;28;20198;-71
2021/05/09 09:53:35;;;;;;;6.00;1.10;;;;;;;;;;5093273;28;20257;-71
2021/05/09 09:56:03;;;;;;;3.23;0.80;;;;;;;;;;5096451;28;20304;-71
2021/05/09 09:58:48;;;;;;;1.97;0.97;;;;;;;;;;5099506;28;20228;-71
2021/05/09 10:01:15;;;;;;;4.10;1.00;;;;;;;;;;5098617;28;20285;-71
2021/05/09 10:03:42;;;;;;;3.70;0.90;;;;;;;;;;5087470;28;20260;-71
2021/05/09 10:06:10;;;;;;;0.97;0.97;;;;;;;;;;5097987;28;20228;-71
2021/05/09 10:08:38;;;;;;;1.93;0.87;;;;;;;;;;5087388;28;20241;-71
2021/05/09 10:11:06;;;;;;;2.00;0.70;;;;;;;;;;5096499;28;20197;-71
2021/05/09 10:13:33;;;;;;;0.73;0.67;;;;;;;;;;5097829;28;20276;-71
2021/05/09 10:16:01;;;;;;;4.87;0.83;;;;;;;;;;5097846;28;20221;-70
2021/05/09 10:18:28;;;;;;;2.90;1.80;;;;;;;;;;5098808;28;20663;-70
2021/05/09 10:20:56;;;;;;;2.40;2.00;;;;;;;;;;5087883;28;20700;-70
2021/05/09 10:23:23;;;;;;;3.47;1.73;;;;;;;;;;5094269;28;20218;-69
2021/05/09 10:25:51;;;;;;;3.30;1.43;;;;;;;;;;5103907;28;20586;-69
2021/05/09 10:28:19;;;;;;;2.27;1.13;;;;;;;;;;5107469;28;20286;-70
2021/05/09 10:30:48;;;;;;;2.57;1.10;;;;;;;;;;5090114;28;20198;-70
2021/05/09 10:33:30;;;;;;;2.27;0.80;;;;;;;;;;5093999;28;20228;-68
2021/05/09 10:35:57;;;;;;;2.13;0.93;;;;;;;;;;5080344;28;20257;-71
2021/05/09 10:38:24;;;;;;;2.70;0.80;;;;;;;;;;5098750;28;20285;-71
2021/05/09 10:41:08;;;;;;;2.00;1.17;;;;;;;;;;5095864;28;20646;-73
2021/05/09 10:43:35;;;;;;;1.57;1.00;;;;;;;;;;5095534;28;20761;-71
2021/05/09 10:46:03;;;;;;;2.13;0.80;;;;;;;;;;5094682;28;20232;-71
2021/05/09 10:48:32;;;;;;;3.20;1.80;;;;;;;;;;5098372;28;20268;-71
2021/05/09 10:51:29;;;;;;;2.60;1.97;;;;;;;;;;5091908;28;20285;-71
2021/05/09 10:53:56;;;;;;;1.70;0.97;;;;;;;;;;5089815;28;20733;-71
2021/05/09 10:56:32;;;;;;;2.07;1.23;;;;;;;;;;5094935;28;20210;-71
2021/05/09 10:58:59;;;;;;;1.80;1.00;;;;;;;;;;5096844;28;20201;-70
2021/05/09 11:01:28;;;;;;;2.50;1.00;;;;;;;;;;5097520;28;20357;-71
2021/05/09 11:03:56;;;;;;;1.33;1.00;;;;;;;;;;5090431;28;20231;-70
2021/05/09 11:06:40;;;;;;;3.80;1.30;;;;;;;;;;5097054;28;20245;-72
2021/05/09 11:09:08;;;;;;;3.33;1.00;;;;;;;;;;5096613;28;20278;-70
2021/05/09 11:11:53;;;;;;;2.63;0.90;;;;;;;;;;5103381;28;20702;-70
2021/05/09 11:14:21;;;;;;;2.53;1.00;;;;;;;;;;5101657;28;20225;-70
2021/05/09 11:16:58;;;;;;;2.77;0.90;;;;;;;;;;5104354;28;20200;-70
2021/05/09 11:19:34;;;;;;;1.93;0.90;;;;;;;;;;5105962;28;20199;-70
2021/05/09 11:22:01;;;;;;;1.53;1.07;;;;;;;;;;5096081;28;20246;-70
2021/05/09 11:24:29;;;;;;;2.30;1.03;;;;;;;;;;5086240;28;20662;-69
2021/05/09 11:26:57;;;;;;;1.90;1.10;;;;;;;;;;5095524;28;20292;-69
2021/05/09 11:29:25;;;;;;;3.73;1.20;;;;;;;;;;5097223;28;20566;-70
2021/05/09 11:31:53;;;;;;;3.10;1.10;;;;;;;;;;5096038;28;20290;-69
2021/05/09 11:34:21;;;;;;;2.90;1.00;;;;;;;;;;5094175;28;20312;-69
2021/05/09 11:36:48;;;;;;;1.70;1.13;;;;;;;;;;5097342;28;20205;-69
2021/05/09 11:39:17;;;;;;;1.40;0.83;;;;;;;;;;5096567;28;20205;-69
2021/05/09 11:41:51;;;;;;;3.93;1.00;;;;;;;;;;5096992;28;20755;-69
2021/05/09 11:44:18;;;;;;;2.73;0.97;;;;;;;;;;5083158;28;20285;-69
2021/05/09 11:46:46;;;;;;;1.53;1.10;;;;;;;;;;5096904;28;20203;-69
2021/05/09 11:49:17;;;;;;;2.60;1.00;;;;;;;;;;5094489;28;20202;-69
2021/05/09 11:51:48;;;;;;;2.07;0.70;;;;;;;;;;5097156;28;20207;-69
2021/05/09 11:54:15;;;;;;;3.03;1.07;;;;;;;;;;5087889;28;20203;-69
2021/05/09 11:56:49;;;;;;;1.70;1.00;;;;;;;;;;5094713;28;20204;-69
2021/05/09 11:59:36;;;;;;;1.07;0.87;;;;;;;;;;5097199;28;20728;-69
2021/05/09 12:02:04;;;;;;;3.17;1.10;;;;;;;;;;5095893;28;20208;-69
2021/05/09 12:04:31;;;;;;;2.47;1.00;;;;;;;;;;5090464;28;20275;-69
2021/05/09 12:06:59;;;;;;;3.83;1.37;;;;;;;;;;5097172;28;20209;-69
2021/05/09 12:09:27;;;;;;;1.33;1.03;;;;;;;;;;5095789;28;20341;-69
2021/05/09 12:11:54;;;;;;;1.43;1.00;;;;;;;;;;5096899;28;20264;-68
2021/05/09 12:14:21;;;;;;;1.23;1.10;;;;;;;;;;5095725;28;20304;-67
2021/05/09 12:16:48;;;;;;;4.80;1.17;;;;;;;;;;5095870;28;20663;-68
2021/05/09 12:19:16;;;;;;;2.00;1.20;;;;;;;;;;5089977;28;20203;-68
2021/05/09 12:21:58;;;;;;;3.73;1.37;;;;;;;;;;5090881;28;20240;-68
2021/05/09 12:24:25;;;;;;;1.37;0.87;;;;;;;;;;5082658;28;20299;-68
2021/05/09 12:26:59;;;;;;;1.20;1.10;;;;;;;;;;5094506;28;20238;-68
2021/05/09 12:29:26;;;;;;;5.37;1.30;;;;;;;;;;5096986;28;20238;-68
2021/05/09 12:31:53;;;;;;;5.53;1.33;;;;;;;;;;5085970;28;20234;-68
2021/05/09 12:34:27;;;;;;;1.67;1.00;;;;;;;;;;5092296;28;20223;-68
2021/05/09 12:37:07;;;;;;;3.90;1.30;;;;;;;;;;5097225;28;20294;-68
2021/05/09 12:39:34;;;;;;;1.30;1.03;;;;;;;;;;5099791;28;20266;-68
2021/05/09 12:42:02;;;;;;;4.60;1.27;;;;;;;;;;5100423;28;20238;-68
2021/05/09 12:44:29;;;;;;;3.90;1.23;;;;;;;;;;5083535;28;20682;-68
2021/05/09 12:46:57;;;;;;;1.83;0.93;;;;;;;;;;5094979;28;20210;-68
2021/05/09 12:49:26;;;;;;;1.70;1.03;;;;;;;;;;5099128;28;20203;-68
2021/05/09 12:51:59;;;;;;;5.27;1.10;;;;;;;;;;5086748;28;20294;-68
2021/05/09 12:54:37;;;;;;;1.37;1.13;;;;;;;;;;5090731;28;20247;-68
2021/05/09 12:57:17;;;;;;;2.87;1.23;;;;;;;;;;5099396;28;20257;-68
2021/05/09 12:59:52;;;;;;;2.30;1.10;;;;;;;;;;5099257;28;20294;-68
2021/05/09 13:02:21;;;;;;;3.33;1.20;;;;;;;;;;5098168;28;20256;-68
2021/05/09 13:04:51;;;;;;;1.30;1.20;;;;;;;;;;5092960;28;20230;-68
2021/05/09 13:07:19;;;;;;;2.43;1.30;;;;;;;;;;5099217;28;20304;-68
2021/05/09 13:09:47;;;;;;;3.70;1.43;;;;;;;;;;5087190;28;20239;-68
2021/05/09 13:12:14;;;;;;;3.17;1.43;;;;;;;;;;5086034;28;20300;-68
2021/05/09 13:14:42;;;;;;;0.90;0.90;;;;;;;;;;5099299;28;20303;-68
2021/05/09 13:17:09;;;;;;;1.37;1.10;;;;;;;;;;5099948;28;20216;-68
2021/05/09 13:19:38;;;;;;;4.50;1.40;;;;;;;;;;5098732;28;20229;-68
2021/05/09 13:22:05;;;;;;;1.40;1.07;;;;;;;;;;5099649;28;20655;-68
2021/05/09 13:24:33;;;;;;;2.67;1.33;;;;;;;;;;5097474;28;20259;-68
2021/05/09 13:27:00;;;;;;;2.97;1.40;;;;;;;;;;5099384;28;20295;-68
2021/05/09 13:29:27;;;;;;;2.00;1.20;;;;;;;;;;5100072;28;20250;-68
2021/05/09 13:31:54;;;;;;;2.10;1.30;;;;;;;;;;5097135;28;20215;-68
2021/05/09 13:34:21;;;;;;;3.23;1.27;;;;;;;;;;5098267;28;20211;-68
2021/05/09 13:36:48;;;;;;;1.57;1.33;;;;;;;;;;5099618;28;20240;-68
2021/05/09 13:39:15;;;;;;;5.10;1.50;;;;;;;;;;5094851;28;20291;-68
2021/05/09 13:41:43;;;;;;;4.10;1.40;;;;;;;;;;5098285;28;20730;-68
2021/05/09 13:44:10;;;;;;;3.10;1.20;;;;;;;;;;5095303;28;20308;-68
2021/05/09 13:46:38;;;;;;;1.47;1.13;;;;;;;;;;5099616;28;20262;-68
2021/05/09 13:49:05;;;;;;;1.77;1.37;;;;;;;;;;5084013;28;20266;-68
2021/05/09 13:51:32;;;;;;;8.83;2.03;;;;;;;;;;5094607;28;20303;-68
2021/05/09 13:53:59;;;;;;;2.43;1.20;;;;;;;;;;5097399;28;20247;-68
2021/05/09 13:56:26;;;;;;;2.17;1.17;;;;;;;;;;5084861;28;20289;-68
2021/05/09 13:58:55;;;;;;;2.47;1.17;;;;;;;;;;5099256;28;20302;-68
2021/05/09 14:01:22;;;;;;;1.80;1.23;;;;;;;;;;5097351;28;20206;-68
2021/05/09 14:03:49;;;;;;;1.77;1.13;;;;;;;;;;5088711;28;20790;-68
2021/05/09 14:06:16;;;;;;;3.17;1.47;;;;;;;;;;5085399;28;20310;-68
2021/05/09 14:08:44;;;;;;;4.77;1.30;;;;;;;;;;5097166;28;20303;-68
2021/05/09 14:11:11;;;;;;;2.40;1.40;;;;;;;;;;5099711;28;20218;-68
2021/05/09 14:13:38;;;;;;;2.00;1.27;;;;;;;;;;5086977;28;20271;-68
2021/05/09 14:16:06;;;;;;;4.37;1.50;;;;;;;;;;5095830;28;20745;-68
2021/05/09 14:18:33;;;;;;;2.23;1.30;;;;;;;;;;5097750;28;20215;-68
2021/05/09 14:21:00;;;;;;;2.07;1.30;;;;;;;;;;5098592;28;20219;-69
2021/05/09 14:23:27;;;;;;;1.63;1.40;;;;;;;;;;5086070;28;20216;-68
2021/05/09 14:25:54;;;;;;;2.63;1.30;;;;;;;;;;5097831;28;20878;-68
2021/05/09 14:28:21;;;;;;;1.90;1.43;;;;;;;;;;5098924;28;20282;-68
2021/05/09 14:30:48;;;;;;;1.50;1.40;;;;;;;;;;5096257;28;20208;-68
2021/05/09 14:33:16;;;;;;;2.43;1.60;;;;;;;;;;5086421;28;20284;-68
2021/05/09 14:35:43;;;;;;;4.23;1.50;;;;;;;;;;5096780;28;20289;-68
2021/05/09 14:38:10;;;;;;;2.50;1.60;;;;;;;;;;5098671;28;20582;-68
2021/05/09 14:40:37;;;;;;;2.07;1.30;;;;;;;;;;5092945;28;20204;-68
2021/05/09 14:43:04;;;;;;;1.93;1.10;;;;;;;;;;5090303;28;20226;-68
2021/05/09 14:45:31;;;;;;;2.60;1.40;;;;;;;;;;5094752;28;20265;-68
2021/05/09 14:47:58;;;;;;;3.17;1.50;;;;;;;;;;5094833;28;20635;-68
2021/05/09 14:50:26;;;;;;;1.83;1.30;;;;;;;;;;5087925;28;20236;-68